sensor_id;sensor_type;location;lat;lon;timestamp;pressure;altitude;pressure_sealevel;temperature;humidity
72294;BME280;60632;49.236;8.398;2022-11-20T00:01:39;100152.28;;;10.51;73.96
72294;BME280;60632;49.236;8.398;2022-11-20T00:04:39;100148.75;;;10.51;73.94
72294;BME280;60632;49.236;8.398;2022-11-20T00:07:40;100145.22;;;10.50;74.00
72294;BME280;60632;49.236;8.398;2022-11-20T00:10:40;100140.03;;;10.49;73.94
72294;BME280;60632;49.236;8.398;2022-11-20T00:13:41;100145.44;;;10.49;74.18
72294;BME280;60632;49.236;8.398;2022-11-20T00:16:41;100154.41;;;10.49;73.92
72294;BME280;60632;49.236;8.398;2022-11-20T00:19:42;100144.63;;;10.48;74.06
72294;BME280;60632;49.236;8.398;2022-11-20T00:22:42;100144.63;;;10.48;73.99
72294;BME280;60632;49.236;8.398;2022-11-20T00:25:42;100144.63;;;10.48;74.07
72294;BME280;60632;49.236;8.398;2022-11-20T00:28:43;100144.06;;;10.46;74.14
72294;BME280;60632;49.236;8.398;2022-11-20T00:31:44;100145.09;;;10.45;73.95
72294;BME280;60632;49.236;8.398;2022-11-20T00:34:44;100134.25;;;10.45;74.06
72294;BME280;60632;49.236;8.398;2022-11-20T00:37:45;100127.22;;;10.44;73.98
72294;BME280;60632;49.236;8.398;2022-11-20T00:40:45;100138.03;;;10.44;73.95
72294;BME280;60632;49.236;8.398;2022-11-20T00:43:45;100136.41;;;10.43;74.07
72294;BME280;60632;49.236;8.398;2022-11-20T00:46:46;100136.41;;;10.43;74.11
72294;BME280;60632;49.236;8.398;2022-11-20T00:49:46;100133.69;;;10.43;73.95
72294;BME280;60632;49.236;8.398;2022-11-20T00:52:46;100136.41;;;10.43;74.15
72294;BME280;60632;49.236;8.398;2022-11-20T00:56:09;100133.91;;;10.42;74.17
72294;BME280;60632;49.236;8.398;2022-11-20T00:59:08;100137.44;;;10.42;74.12
72294;BME280;60632;49.236;8.398;2022-11-20T01:02:08;100136.88;;;10.40;74.20
72294;BME280;60632;49.236;8.398;2022-11-20T01:05:09;100136.88;;;10.40;73.99
72294;BME280;60632;49.236;8.398;2022-11-20T01:08:09;100142.31;;;10.40;74.13
72294;BME280;60632;49.236;8.398;2022-11-20T01:11:11;100137.91;;;10.39;73.99
72294;BME280;60632;49.236;8.398;2022-11-20T01:14:12;100131.69;;;10.39;74.05
72294;BME280;60632;49.236;8.398;2022-11-20T01:17:13;100128.16;;;10.38;73.98
72294;BME280;60632;49.236;8.398;2022-11-20T01:20:14;100130.06;;;10.38;73.98
72294;BME280;60632;49.236;8.398;2022-11-20T01:23:14;100137.34;;;10.37;74.13
72294;BME280;60632;49.236;8.398;2022-11-20T01:26:15;100135.69;;;10.36;74.12
72294;BME280;60632;49.236;8.398;2022-11-20T01:29:18;100130.28;;;10.36;74.08
72294;BME280;60632;49.236;8.398;2022-11-20T01:32:18;100130.28;;;10.36;73.99
72294;BME280;60632;49.236;8.398;2022-11-20T01:35:19;100144.88;;;10.35;74.01
72294;BME280;60632;49.236;8.398;2022-11-20T01:38:20;100134.06;;;10.35;74.03
72294;BME280;60632;49.236;8.398;2022-11-20T01:41:21;100134.31;;;10.34;74.17
72294;BME280;60632;49.236;8.398;2022-11-20T01:47:50;100130.75;;;10.33;74.23
72294;BME280;60632;49.236;8.398;2022-11-20T01:50:51;100122.88;;;10.32;74.10
72294;BME280;60632;49.236;8.398;2022-11-20T01:53:53;100129.09;;;10.32;74.23
72294;BME280;60632;49.236;8.398;2022-11-20T01:56:54;100122.06;;;10.31;74.09
72294;BME280;60632;49.236;8.398;2022-11-20T01:59:59;100116.63;;;10.31;74.16
72294;BME280;60632;49.236;8.398;2022-11-20T02:03:02;100126.66;;;10.31;74.18
72294;BME280;60632;49.236;8.398;2022-11-20T02:06:05;100120.38;;;10.30;74.19
72294;BME280;60632;49.236;8.398;2022-11-20T02:09:08;100122.53;;;10.28;74.15
72294;BME280;60632;49.236;8.398;2022-11-20T02:12:09;100121.47;;;10.29;74.24
72294;BME280;60632;49.236;8.398;2022-11-20T02:15:29;100117.13;;;10.28;74.21
72294;BME280;60632;49.236;8.398;2022-11-20T02:18:30;100117.13;;;10.28;74.20
72294;BME280;60632;49.236;8.398;2022-11-20T02:21:42;100109.22;;;10.26;74.22
72294;BME280;60632;49.236;8.398;2022-11-20T02:24:45;100115.44;;;10.27;74.24
72294;BME280;60632;49.236;8.398;2022-11-20T02:27:46;100112.13;;;10.25;74.04
72294;BME280;60632;49.236;8.398;2022-11-20T02:30:46;100106.72;;;10.25;74.05
72294;BME280;60632;49.236;8.398;2022-11-20T02:33:47;100106.72;;;10.25;74.16
72294;BME280;60632;49.236;8.398;2022-11-20T02:36:47;100102.38;;;10.24;74.32
72294;BME280;60632;49.236;8.398;2022-11-20T02:39:50;100105.91;;;10.24;74.19
72294;BME280;60632;49.236;8.398;2022-11-20T02:42:52;100110.50;;;10.24;74.22
72294;BME280;60632;49.236;8.398;2022-11-20T02:45:53;100103.41;;;10.23;74.22
72294;BME280;60632;49.236;8.398;2022-11-20T02:48:53;100095.53;;;10.21;74.24
72294;BME280;60632;49.236;8.398;2022-11-20T02:51:53;100085.53;;;10.22;74.26
72294;BME280;60632;49.236;8.398;2022-11-20T02:54:54;100090.94;;;10.22;74.18
72294;BME280;60632;49.236;8.398;2022-11-20T02:57:54;100084.72;;;10.21;74.15
72294;BME280;60632;49.236;8.398;2022-11-20T03:00:54;100082.22;;;10.20;74.30
72294;BME280;60632;49.236;8.398;2022-11-20T03:03:55;100088.47;;;10.20;74.23
72294;BME280;60632;49.236;8.398;2022-11-20T03:06:56;100087.63;;;10.20;74.10
72294;BME280;60632;49.236;8.398;2022-11-20T03:09:58;100088.72;;;10.19;74.11
72294;BME280;60632;49.236;8.398;2022-11-20T03:12:59;100081.41;;;10.19;74.28
72294;BME280;60632;49.236;8.398;2022-11-20T03:16:04;100084.38;;;10.18;74.08
72294;BME280;60632;49.236;8.398;2022-11-20T03:19:05;100079.78;;;10.18;74.32
72294;BME280;60632;49.236;8.398;2022-11-20T03:22:05;100072.69;;;10.17;74.10
72294;BME280;60632;49.236;8.398;2022-11-20T03:25:05;100074.56;;;10.17;74.12
72294;BME280;60632;49.236;8.398;2022-11-20T03:28:06;100071.88;;;10.17;74.11
72294;BME280;60632;49.236;8.398;2022-11-20T03:31:11;100065.63;;;10.16;74.24
72294;BME280;60632;49.236;8.398;2022-11-20T03:34:11;100070.22;;;10.16;74.25
72294;BME280;60632;49.236;8.398;2022-11-20T03:37:12;100070.22;;;10.16;74.24
72294;BME280;60632;49.236;8.398;2022-11-20T03:40:12;100076.72;;;10.15;74.19
72294;BME280;60632;49.236;8.398;2022-11-20T03:43:12;100084.84;;;10.15;74.34
72294;BME280;60632;49.236;8.398;2022-11-20T03:46:16;100084.03;;;10.14;74.33
72294;BME280;60632;49.236;8.398;2022-11-20T03:49:16;100083.16;;;10.14;74.13
72294;BME280;60632;49.236;8.398;2022-11-20T03:52:17;100092.38;;;10.13;74.30
72294;BME280;60632;49.236;8.398;2022-11-20T03:55:17;100089.66;;;10.13;74.19
72294;BME280;60632;49.236;8.398;2022-11-20T03:58:17;100079.91;;;10.12;74.15
72294;BME280;60632;49.236;8.398;2022-11-20T04:01:19;100079.91;;;10.12;74.09
72294;BME280;60632;49.236;8.398;2022-11-20T04:04:19;100079.06;;;10.11;74.29
72294;BME280;60632;49.236;8.398;2022-11-20T04:07:22;100080.94;;;10.11;74.36
72294;BME280;60632;49.236;8.398;2022-11-20T04:10:23;100071.19;;;10.10;74.19
72294;BME280;60632;49.236;8.398;2022-11-20T04:13:23;100071.19;;;10.10;74.35
72294;BME280;60632;49.236;8.398;2022-11-20T04:16:24;100068.94;;;10.07;74.26
72294;BME280;60632;49.236;8.398;2022-11-20T04:19:25;100075.78;;;10.09;74.12
72294;BME280;60632;49.236;8.398;2022-11-20T04:22:25;100064.13;;;10.09;74.19
72294;BME280;60632;49.236;8.398;2022-11-20T04:25:25;100061.63;;;10.07;74.15
72294;BME280;60632;49.236;8.398;2022-11-20T04:28:25;100059.75;;;10.08;74.32
72294;BME280;60632;49.236;8.398;2022-11-20T04:31:27;100060.81;;;10.07;74.34
72294;BME280;60632;49.236;8.398;2022-11-20T04:34:28;100060.81;;;10.07;74.34
72294;BME280;60632;49.236;8.398;2022-11-20T04:37:28;100060.81;;;10.07;74.22
72294;BME280;60632;49.236;8.398;2022-11-20T04:40:29;100067.31;;;10.05;74.17
72294;BME280;60632;49.236;8.398;2022-11-20T04:43:29;100063.53;;;10.07;74.38
72294;BME280;60632;49.236;8.398;2022-11-20T04:46:34;100061.88;;;10.05;74.18
72294;BME280;60632;49.236;8.398;2022-11-20T04:49:35;100063.78;;;10.05;74.37
72294;BME280;60632;49.236;8.398;2022-11-20T04:52:36;100056.69;;;10.04;74.38
72294;BME280;60632;49.236;8.398;2022-11-20T04:55:36;100055.88;;;10.03;74.31
72294;BME280;60632;49.236;8.398;2022-11-20T04:58:36;100051.28;;;10.04;74.28
72294;BME280;60632;49.236;8.398;2022-11-20T05:01:37;100061.28;;;10.03;74.31
72294;BME280;60632;49.236;8.398;2022-11-20T05:04:37;100070.47;;;10.02;74.30
72294;BME280;60632;49.236;8.398;2022-11-20T05:07:38;100059.66;;;10.02;74.40
72294;BME280;60632;49.236;8.398;2022-11-20T05:10:38;100052.59;;;10.01;74.27
72294;BME280;60632;49.236;8.398;2022-11-20T05:13:38;100061.53;;;10.02;74.20
72294;BME280;60632;49.236;8.398;2022-11-20T05:16:39;100058.03;;;10.01;74.40
72294;BME280;60632;49.236;8.398;2022-11-20T05:19:39;100054.47;;;10.01;74.21
72294;BME280;60632;49.236;8.398;2022-11-20T05:22:40;100053.66;;;10.00;74.31
72294;BME280;60632;49.236;8.398;2022-11-20T05:25:40;100046.59;;;9.99;74.33
72294;BME280;60632;49.236;8.398;2022-11-20T05:28:40;100049.31;;;9.99;74.16
72294;BME280;60632;49.236;8.398;2022-11-20T05:31:41;100054.72;;;9.99;74.25
72294;BME280;60632;49.236;8.398;2022-11-20T05:34:41;100051.19;;;9.99;74.24
72294;BME280;60632;49.236;8.398;2022-11-20T05:37:41;100049.53;;;9.98;74.34
72294;BME280;60632;49.236;8.398;2022-11-20T05:40:42;100048.69;;;9.97;74.35
72294;BME280;60632;49.236;8.398;2022-11-20T05:43:43;100052.22;;;9.98;74.43
72294;BME280;60632;49.236;8.398;2022-11-20T05:46:43;100044.34;;;9.96;74.30
72294;BME280;60632;49.236;8.398;2022-11-20T05:49:44;100044.09;;;9.98;74.32
72294;BME280;60632;49.236;8.398;2022-11-20T05:52:47;100042.72;;;9.95;74.30
72294;BME280;60632;49.236;8.398;2022-11-20T05:55:55;100047.88;;;9.97;74.31
72294;BME280;60632;49.236;8.398;2022-11-20T05:58:55;100050.84;;;9.95;74.45
72294;BME280;60632;49.236;8.398;2022-11-20T06:01:56;100046.47;;;9.94;74.15
72294;BME280;60632;49.236;8.398;2022-11-20T06:04:56;100058.16;;;9.95;74.43
72294;BME280;60632;49.236;8.398;2022-11-20T06:07:56;100051.88;;;9.94;74.32
72294;BME280;60632;49.236;8.398;2022-11-20T06:10:57;100051.06;;;9.94;74.33
72294;BME280;60632;49.236;8.398;2022-11-20T06:13:57;100044.00;;;9.93;74.32
72294;BME280;60632;49.236;8.398;2022-11-20T06:16:57;100048.59;;;9.92;74.38
72294;BME280;60632;49.236;8.398;2022-11-20T06:19:58;100048.59;;;9.92;74.43
72294;BME280;60632;49.236;8.398;2022-11-20T06:22:58;100045.91;;;9.92;74.18
72294;BME280;60632;49.236;8.398;2022-11-20T06:26:02;100046.94;;;9.91;74.34
72294;BME280;60632;49.236;8.398;2022-11-20T06:29:03;100046.94;;;9.91;74.35
72294;BME280;60632;49.236;8.398;2022-11-20T06:32:03;100038.81;;;9.91;74.26
72294;BME280;60632;49.236;8.398;2022-11-20T06:35:04;100036.13;;;9.91;74.30
72294;BME280;60632;49.236;8.398;2022-11-20T06:38:04;100039.88;;;9.90;74.29
72294;BME280;60632;49.236;8.398;2022-11-20T06:41:10;100039.06;;;9.90;74.39
72294;BME280;60632;49.236;8.398;2022-11-20T06:44:10;100039.88;;;9.90;74.29
72294;BME280;60632;49.236;8.398;2022-11-20T06:47:11;100045.31;;;9.90;74.38
72294;BME280;60632;49.236;8.398;2022-11-20T06:50:11;100043.66;;;9.89;74.42
72294;BME280;60632;49.236;8.398;2022-11-20T06:53:12;100045.78;;;9.87;74.47
72294;BME280;60632;49.236;8.398;2022-11-20T06:56:12;100056.38;;;9.89;74.51
72294;BME280;60632;49.236;8.398;2022-11-20T06:59:13;100055.53;;;9.88;74.44
72294;BME280;60632;49.236;8.398;2022-11-20T07:02:13;100058.25;;;9.88;74.24
72294;BME280;60632;49.236;8.398;2022-11-20T07:05:13;100056.59;;;9.87;74.33
72294;BME280;60632;49.236;8.398;2022-11-20T07:08:14;100064.72;;;9.87;74.44
72294;BME280;60632;49.236;8.398;2022-11-20T07:11:14;100060.38;;;9.86;74.34
72294;BME280;60632;49.236;8.398;2022-11-20T07:14:14;100067.44;;;9.87;74.47
72294;BME280;60632;49.236;8.398;2022-11-20T07:17:15;100065.78;;;9.86;74.28
72294;BME280;60632;49.236;8.398;2022-11-20T07:20:15;100060.38;;;9.86;74.40
72294;BME280;60632;49.236;8.398;2022-11-20T07:23:16;100074.97;;;9.85;74.32
72294;BME280;60632;49.236;8.398;2022-11-20T07:26:16;100064.16;;;9.85;74.32
72294;BME280;60632;49.236;8.398;2022-11-20T07:29:17;100064.16;;;9.85;74.32
72294;BME280;60632;49.236;8.398;2022-11-20T07:32:17;100063.31;;;9.85;74.29
72294;BME280;60632;49.236;8.398;2022-11-20T07:35:18;100067.91;;;9.84;74.26
72294;BME280;60632;49.236;8.398;2022-11-20T07:38:18;100071.44;;;9.85;74.26
72294;BME280;60632;49.236;8.398;2022-11-20T07:41:19;100073.31;;;9.84;74.31
72294;BME280;60632;49.236;8.398;2022-11-20T07:44:19;100078.72;;;9.84;74.51
72294;BME280;60632;49.236;8.398;2022-11-20T07:47:19;100078.72;;;9.84;74.45
72294;BME280;60632;49.236;8.398;2022-11-20T07:50:20;100084.97;;;9.85;74.51
72294;BME280;60632;49.236;8.398;2022-11-20T07:53:21;100092.50;;;9.82;74.48
72294;BME280;60632;49.236;8.398;2022-11-20T07:56:21;100087.91;;;9.83;74.43
72294;BME280;60632;49.236;8.398;2022-11-20T07:59:22;100070.84;;;9.82;74.34
72294;BME280;60632;49.236;8.398;2022-11-20T08:02:22;100066.25;;;9.83;74.43
72294;BME280;60632;49.236;8.398;2022-11-20T08:05:22;100058.38;;;9.81;74.51
72294;BME280;60632;49.236;8.398;2022-11-20T08:08:23;100065.44;;;9.82;74.36
72294;BME280;60632;49.236;8.398;2022-11-20T08:11:23;100072.75;;;9.82;74.36
72294;BME280;60632;49.236;8.398;2022-11-20T08:14:42;100079.78;;;9.83;74.50
72294;BME280;60632;49.236;8.398;2022-11-20T08:17:43;100095.44;;;9.81;74.30
72294;BME280;60632;49.236;8.398;2022-11-20T08:20:43;100097.09;;;9.82;74.53
72294;BME280;60632;49.236;8.398;2022-11-20T08:23:44;100092.72;;;9.81;74.46
72294;BME280;60632;49.236;8.398;2022-11-20T08:26:44;100101.66;;;9.81;74.38
72294;BME280;60632;49.236;8.398;2022-11-20T08:29:45;100095.44;;;9.81;74.37
72294;BME280;60632;49.236;8.398;2022-11-20T08:32:45;100092.97;;;9.79;74.23
72294;BME280;60632;49.236;8.398;2022-11-20T08:35:45;100092.72;;;9.81;74.35
72294;BME280;60632;49.236;8.398;2022-11-20T08:38:49;100100.84;;;9.81;74.34
72294;BME280;60632;49.236;8.398;2022-11-20T08:41:50;100098.38;;;9.79;74.38
72294;BME280;60632;49.236;8.398;2022-11-20T08:44:50;100103.81;;;9.79;74.48
72294;BME280;60632;49.236;8.398;2022-11-20T08:47:51;100112.75;;;9.80;74.41
72294;BME280;60632;49.236;8.398;2022-11-20T08:50:51;100104.63;;;9.80;74.36
72294;BME280;60632;49.236;8.398;2022-11-20T08:53:51;100116.25;;;9.80;74.35
72294;BME280;60632;49.236;8.398;2022-11-20T08:56:52;100119.22;;;9.79;74.29
72294;BME280;60632;49.236;8.398;2022-11-20T08:59:52;100120.03;;;9.79;74.40
72294;BME280;60632;49.236;8.398;2022-11-20T09:02:52;100120.88;;;9.80;74.26
72294;BME280;60632;49.236;8.398;2022-11-20T09:06:11;100124.63;;;9.79;74.52
72294;BME280;60632;49.236;8.398;2022-11-20T09:09:11;100125.44;;;9.79;74.56
72294;BME280;60632;49.236;8.398;2022-11-20T09:12:14;100112.13;;;9.78;74.55
72294;BME280;60632;49.236;8.398;2022-11-20T09:15:15;100112.13;;;9.78;74.54
72294;BME280;60632;49.236;8.398;2022-11-20T09:18:15;100111.31;;;9.77;74.58
72294;BME280;60632;49.236;8.398;2022-11-20T09:21:16;100118.38;;;9.78;74.48
72294;BME280;60632;49.236;8.398;2022-11-20T09:24:16;100113.81;;;9.79;74.46
72294;BME280;60632;49.236;8.398;2022-11-20T09:27:17;100115.91;;;9.77;74.49
72294;BME280;60632;49.236;8.398;2022-11-20T09:30:26;100111.31;;;9.77;74.40
72294;BME280;60632;49.236;8.398;2022-11-20T09:33:27;100114.84;;;9.78;74.42
72294;BME280;60632;49.236;8.398;2022-11-20T09:36:27;100118.38;;;9.78;74.39
72294;BME280;60632;49.236;8.398;2022-11-20T09:39:27;100132.75;;;9.79;74.59
72294;BME280;60632;49.236;8.398;2022-11-20T09:45:54;100139.19;;;9.78;74.23
72294;BME280;60632;49.236;8.398;2022-11-20T09:52:21;100144.63;;;9.78;74.51
72294;BME280;60632;49.236;8.398;2022-11-20T09:55:22;100138.38;;;9.77;74.76
72294;BME280;60632;49.236;8.398;2022-11-20T09:58:32;100131.09;;;9.78;74.62
72294;BME280;60632;49.236;8.398;2022-11-20T10:01:37;100132.16;;;9.77;74.42
72294;BME280;60632;49.236;8.398;2022-11-20T10:04:42;100133.78;;;9.78;74.39
72294;BME280;60632;49.236;8.398;2022-11-20T10:07:47;100142.97;;;9.77;74.41
72294;BME280;60632;49.236;8.398;2022-11-20T10:16:59;100138.38;;;9.77;74.37
72294;BME280;60632;49.236;8.398;2022-11-20T10:29:33;100130.06;;;9.79;74.32
72294;BME280;60632;49.236;8.398;2022-11-20T10:32:35;100135.47;;;9.79;74.50
72294;BME280;60632;49.236;8.398;2022-11-20T10:35:40;100125.44;;;9.79;74.47
72294;BME280;60632;49.236;8.398;2022-11-20T10:38:46;100119.22;;;9.79;74.33
72294;BME280;60632;49.236;8.398;2022-11-20T10:41:50;100117.56;;;9.78;74.40
72294;BME280;60632;49.236;8.398;2022-11-20T10:44:52;100121.94;;;9.79;74.44
72294;BME280;60632;49.236;8.398;2022-11-20T10:54:22;100102.97;;;9.79;74.33
72294;BME280;60632;49.236;8.398;2022-11-20T11:00:32;100107.53;;;9.78;74.34
72294;BME280;60632;49.236;8.398;2022-11-20T11:03:33;100100.28;;;9.79;74.43
72294;BME280;60632;49.236;8.398;2022-11-20T11:06:35;100102.97;;;9.79;74.41
72294;BME280;60632;49.236;8.398;2022-11-20T11:09:38;100093.78;;;9.80;74.28
72294;BME280;60632;49.236;8.398;2022-11-20T11:12:42;100082.97;;;9.80;74.40
72294;BME280;60632;49.236;8.398;2022-11-20T11:15:43;100068.63;;;9.79;74.47
72294;BME280;60632;49.236;8.398;2022-11-20T11:18:46;100066.72;;;9.80;74.31
72294;BME280;60632;49.236;8.398;2022-11-20T11:21:48;100062.97;;;9.81;74.42
72294;BME280;60632;49.236;8.398;2022-11-20T11:24:52;100055.91;;;9.80;74.45
72294;BME280;60632;49.236;8.398;2022-11-20T11:28:01;100068.38;;;9.81;74.44
72294;BME280;60632;49.236;8.398;2022-11-20T11:31:01;100058.63;;;9.80;74.45
72294;BME280;60632;49.236;8.398;2022-11-20T11:34:05;100058.38;;;9.81;74.39
72294;BME280;60632;49.236;8.398;2022-11-20T11:37:19;100054.84;;;9.81;74.42
72294;BME280;60632;49.236;8.398;2022-11-20T11:40:22;100055.66;;;9.81;74.39
72294;BME280;60632;49.236;8.398;2022-11-20T11:43:24;100045.09;;;9.80;74.39
72294;BME280;60632;49.236;8.398;2022-11-20T11:46:44;100044.84;;;9.81;74.55
72294;BME280;60632;49.236;8.398;2022-11-20T11:50:35;100049.44;;;9.81;74.37
72294;BME280;60632;49.236;8.398;2022-11-20T11:53:14;100041.31;;;9.81;74.52
72294;BME280;60632;49.236;8.398;2022-11-20T11:56:16;100046.72;;;9.81;74.42
72294;BME280;60632;49.236;8.398;2022-11-20T11:59:21;100044.00;;;9.81;74.41
72294;BME280;60632;49.236;8.398;2022-11-20T12:02:45;100048.38;;;9.82;74.48
72294;BME280;60632;49.236;8.398;2022-11-20T12:05:58;100034.84;;;9.82;74.28
72294;BME280;60632;49.236;8.398;2022-11-20T12:09:03;100042.97;;;9.82;74.54
72294;BME280;60632;49.236;8.398;2022-11-20T12:12:11;100033.78;;;9.83;74.57
72294;BME280;60632;49.236;8.398;2022-11-20T12:15:19;100033.78;;;9.83;74.36
72294;BME280;60632;49.236;8.398;2022-11-20T12:18:22;100031.06;;;9.83;74.45
72294;BME280;60632;49.236;8.398;2022-11-20T12:31:19;100024.59;;;9.84;74.43
72294;BME280;60632;49.236;8.398;2022-11-20T12:34:27;100023.56;;;9.85;74.36
72294;BME280;60632;49.236;8.398;2022-11-20T12:57:15;100013.28;;;9.87;74.28
72294;BME280;60632;49.236;8.398;2022-11-20T13:00:18;100021.19;;;9.89;74.37
72294;BME280;60632;49.236;8.398;2022-11-20T13:06:22;100014.94;;;9.88;74.44
72294;BME280;60632;49.236;8.398;2022-11-20T13:09:24;100011.19;;;9.89;74.47
72294;BME280;60632;49.236;8.398;2022-11-20T13:15:34;100004.69;;;9.90;74.42
72294;BME280;60632;49.236;8.398;2022-11-20T13:18:38;99992.81;;;9.91;74.41
72294;BME280;60632;49.236;8.398;2022-11-20T13:21:43;99996.59;;;9.90;74.82
72294;BME280;60632;49.236;8.398;2022-11-20T13:24:50;99984.69;;;9.91;74.38
72294;BME280;60632;49.236;8.398;2022-11-20T13:27:50;99987.38;;;9.91;74.35
72294;BME280;60632;49.236;8.398;2022-11-20T13:30:54;99989.06;;;9.92;74.42
72294;BME280;60632;49.236;8.398;2022-11-20T13:33:55;99991.75;;;9.92;74.58
72294;BME280;60632;49.236;8.398;2022-11-20T13:36:57;99972.81;;;9.92;74.38
72294;BME280;60632;49.236;8.398;2022-11-20T13:46:40;99975.28;;;9.94;74.51
72294;BME280;60632;49.236;8.398;2022-11-20T13:49:43;99979.88;;;9.93;74.39
72294;BME280;60632;49.236;8.398;2022-11-20T13:53:00;99976.09;;;9.94;74.57
72294;BME280;60632;49.236;8.398;2022-11-20T14:02:38;99969.84;;;9.94;74.37
72294;BME280;60632;49.236;8.398;2022-11-20T14:05:40;99959.84;;;9.94;74.40
72294;BME280;60632;49.236;8.398;2022-11-20T14:08:50;99965.25;;;9.94;74.38
72294;BME280;60632;49.236;8.398;2022-11-20T14:11:50;99954.44;;;9.94;74.28
72294;BME280;60632;49.236;8.398;2022-11-20T14:14:53;99957.13;;;9.94;74.47
72294;BME280;60632;49.236;8.398;2022-11-20T14:17:54;99945.28;;;9.95;74.44
72294;BME280;60632;49.236;8.398;2022-11-20T14:20:55;99953.94;;;9.97;74.38
72294;BME280;60632;49.236;8.398;2022-11-20T14:24:05;99952.56;;;9.95;74.31
72294;BME280;60632;49.236;8.398;2022-11-20T14:27:12;99953.38;;;9.95;74.42
72294;BME280;60632;49.236;8.398;2022-11-20T14:30:14;99949.88;;;9.95;74.34
72294;BME280;60632;49.236;8.398;2022-11-20T14:33:15;99945.28;;;9.95;74.34
72294;BME280;60632;49.236;8.398;2022-11-20T14:36:16;99945.28;;;9.95;74.26
72294;BME280;60632;49.236;8.398;2022-11-20T14:39:21;99941.50;;;9.96;74.34
72294;BME280;60632;49.236;8.398;2022-11-20T14:42:23;99933.38;;;9.96;74.55
72294;BME280;60632;49.236;8.398;2022-11-20T14:45:24;99942.31;;;9.97;74.33
72294;BME280;60632;49.236;8.398;2022-11-20T14:48:28;99934.19;;;9.97;74.40
72294;BME280;60632;49.236;8.398;2022-11-20T14:54:33;99934.44;;;9.95;74.55
72294;BME280;60632;49.236;8.398;2022-11-20T14:57:43;99936.06;;;9.96;74.42
72294;BME280;60632;49.236;8.398;2022-11-20T15:00:43;99923.63;;;9.95;74.29
72294;BME280;60632;49.236;8.398;2022-11-20T15:04:26;99919.84;;;9.96;74.49
72294;BME280;60632;49.236;8.398;2022-11-20T15:07:26;99919.84;;;9.96;74.28
72294;BME280;60632;49.236;8.398;2022-11-20T15:10:28;99914.91;;;9.93;74.32
72294;BME280;60632;49.236;8.398;2022-11-20T15:13:36;99918.19;;;9.95;74.33
72294;BME280;60632;49.236;8.398;2022-11-20T15:16:37;99919.84;;;9.96;74.54
72294;BME280;60632;49.236;8.398;2022-11-20T15:19:37;99912.78;;;9.95;74.38
72294;BME280;60632;49.236;8.398;2022-11-20T15:22:37;99915.50;;;9.95;74.52
72294;BME280;60632;49.236;8.398;2022-11-20T15:25:41;99911.72;;;9.96;74.36
72294;BME280;60632;49.236;8.398;2022-11-20T15:28:42;99911.72;;;9.96;74.47
72294;BME280;60632;49.236;8.398;2022-11-20T15:31:43;99910.63;;;9.97;74.52
72294;BME280;60632;49.236;8.398;2022-11-20T15:34:45;99916.06;;;9.97;74.43
72294;BME280;60632;49.236;8.398;2022-11-20T15:37:45;99911.72;;;9.96;74.47
72294;BME280;60632;49.236;8.398;2022-11-20T15:40:45;99920.91;;;9.95;74.27
72294;BME280;60632;49.236;8.398;2022-11-20T15:43:46;99906.56;;;9.95;74.52
72294;BME280;60632;49.236;8.398;2022-11-20T15:46:48;99914.41;;;9.96;74.49
72294;BME280;60632;49.236;8.398;2022-11-20T15:49:49;99901.13;;;9.95;74.41
72294;BME280;60632;49.236;8.398;2022-11-20T15:52:49;99907.38;;;9.95;74.32
72294;BME280;60632;49.236;8.398;2022-11-20T15:55:49;99904.66;;;9.95;74.50
72294;BME280;60632;49.236;8.398;2022-11-20T15:58:50;99901.97;;;9.95;74.41
72294;BME280;60632;49.236;8.398;2022-11-20T16:01:50;99905.22;;;9.97;74.44
72294;BME280;60632;49.236;8.398;2022-11-20T16:04:50;99889.47;;;9.94;74.48
72294;BME280;60632;49.236;8.398;2022-11-20T16:07:51;99890.06;;;9.96;74.42
72294;BME280;60632;49.236;8.398;2022-11-20T16:10:51;99889.00;;;9.97;74.39
72294;BME280;60632;49.236;8.398;2022-11-20T16:13:52;99886.28;;;9.97;74.31
72294;BME280;60632;49.236;8.398;2022-11-20T16:17:11;99882.75;;;9.97;74.48
72294;BME280;60632;49.236;8.398;2022-11-20T16:20:11;99886.88;;;9.99;74.42
72294;BME280;60632;49.236;8.398;2022-11-20T16:23:12;99885.72;;;9.95;74.43
72294;BME280;60632;49.236;8.398;2022-11-20T16:26:13;99883.56;;;9.97;74.44
72294;BME280;60632;49.236;8.398;2022-11-20T16:29:14;99869.00;;;9.98;74.54
72294;BME280;60632;49.236;8.398;2022-11-20T16:32:14;99885.25;;;9.98;74.36
72294;BME280;60632;49.236;8.398;2022-11-20T16:35:15;99869.81;;;9.99;74.49
72294;BME280;60632;49.236;8.398;2022-11-20T16:38:15;99871.69;;;9.98;74.42
72294;BME280;60632;49.236;8.398;2022-11-20T16:41:15;99860.88;;;9.98;74.30
72294;BME280;60632;49.236;8.398;2022-11-20T16:44:19;99863.56;;;9.98;74.55
72294;BME280;60632;49.236;8.398;2022-11-20T16:47:19;99858.97;;;9.99;74.38
72294;BME280;60632;49.236;8.398;2022-11-20T16:50:19;99854.38;;;9.99;74.42
72294;BME280;60632;49.236;8.398;2022-11-20T16:56:50;99859.78;;;9.99;74.36
72294;BME280;60632;49.236;8.398;2022-11-20T16:59:52;99855.47;;;9.98;74.29
72294;BME280;60632;49.236;8.398;2022-11-20T17:02:52;99845.44;;;9.99;74.31
72294;BME280;60632;49.236;8.398;2022-11-20T17:05:53;99848.97;;;9.99;74.28
72294;BME280;60632;49.236;8.398;2022-11-20T17:08:54;99850.84;;;9.99;74.31
72294;BME280;60632;49.236;8.398;2022-11-20T17:11:57;99854.38;;;9.99;74.24
72294;BME280;60632;49.236;8.398;2022-11-20T17:14:57;99842.75;;;9.99;74.42
72294;BME280;60632;49.236;8.398;2022-11-20T17:17:57;99854.38;;;9.99;74.48
72294;BME280;60632;49.236;8.398;2022-11-20T17:20:58;99836.50;;;9.98;74.37
72294;BME280;60632;49.236;8.398;2022-11-20T17:24:03;99823.19;;;9.97;74.41
72294;BME280;60632;49.236;8.398;2022-11-20T17:27:05;99827.31;;;9.99;74.35
72294;BME280;60632;49.236;8.398;2022-11-20T17:30:05;99822.97;;;9.98;74.36
72294;BME280;60632;49.236;8.398;2022-11-20T17:33:06;99825.44;;;10.00;74.28
72294;BME280;60632;49.236;8.398;2022-11-20T17:36:07;99818.38;;;9.99;74.29